Camp Okavango Airport


Codes: FBCO/
Name: Camp Okavango Airport
City: Camp Okavango
Country: Botswana
Elevation: 3150 ft.

Photos at Camp Okavango Airport


   Photos courtesy of SpottingLog. You can add your own sightings and photos by signing up for a free trial today.



No photos found.

Weather at Camp Okavango Airport


Time (UTC)DescriptionTempratureWindCloud coverageVisibilityPressureHumidity
19-Apr-2024 03:00Clear Sky18°C7 mph, 0%10000m1018hPa53%
19-Apr-2024 06:00Clear Sky20°C9 mph, E0%10000m1018hPa51%
19-Apr-2024 09:00Clear Sky26°C11 mph, E3%10000m1018hPa36%
19-Apr-2024 12:00Clear Sky33°C9 mph, E5%10000m1014hPa20%
19-Apr-2024 15:00Clear Sky32°C9 mph, SE3%10000m1013hPa20%
19-Apr-2024 18:00Clear Sky24°C7 mph, SE1%10000m1015hPa35%
19-Apr-2024 21:00Clear Sky22°C7 mph, SE0%10000m1016hPa42%
20-Apr-2024 00:00Clear Sky19°C7 mph, SE0%10000m1016hPa47%
20-Apr-2024 03:00Clear Sky18°C4 mph, SE0%10000m1016hPa51%
20-Apr-2024 06:00Clear Sky21°C7 mph, SE0%10000m1017hPa42%
20-Apr-2024 09:00Clear Sky31°C9 mph, E2%10000m1015hPa23%
20-Apr-2024 12:00Clear Sky34°C9 mph, SE4%10000m1011hPa16%
20-Apr-2024 15:00Clear Sky33°C9 mph, SE1%10000m1010hPa16%
20-Apr-2024 18:00Clear Sky24°C7 mph, SE1%10000m1013hPa31%
20-Apr-2024 21:00Clear Sky21°C7 mph, SE0%10000m1015hPa40%
21-Apr-2024 00:00Clear Sky19°C4 mph, E0%10000m1014hPa46%
21-Apr-2024 03:00Clear Sky18°C7 mph, E0%10000m1014hPa48%
21-Apr-2024 06:00Clear Sky22°C9 mph, E0%10000m1015hPa40%
21-Apr-2024 09:00Clear Sky32°C9 mph, E0%10000m1014hPa21%
21-Apr-2024 12:00Clear Sky35°C9 mph, E0%10000m1010hPa16%
21-Apr-2024 15:00Clear Sky34°C9 mph, E0%10000m1008hPa15%
21-Apr-2024 18:00Clear Sky24°C7 mph, SE0%10000m1012hPa26%
21-Apr-2024 21:00Clear Sky21°C7 mph, E0%10000m1014hPa36%
22-Apr-2024 00:00Clear Sky19°C4 mph, SE0%10000m1014hPa38%
22-Apr-2024 03:00Clear Sky19°C4 mph, NE0%10000m1014hPa39%
22-Apr-2024 06:00Clear Sky22°C4 mph, E0%10000m1016hPa34%
22-Apr-2024 09:00Clear Sky32°C7 mph, NE0%10000m1014hPa20%
22-Apr-2024 12:00Clear Sky36°C7 mph, E0%10000m1010hPa12%
22-Apr-2024 15:00Clear Sky35°C7 mph, E0%10000m1009hPa12%
22-Apr-2024 18:00Clear Sky25°C7 mph, SE0%10000m1012hPa21%
22-Apr-2024 21:00Clear Sky21°C7 mph, E0%10000m1014hPa25%
23-Apr-2024 00:00Clear Sky19°C4 mph, NE0%10000m1014hPa28%
23-Apr-2024 03:00Clear Sky18°C4 mph, NE0%10000m1014hPa34%
23-Apr-2024 06:00Clear Sky21°C4 mph, E0%10000m1016hPa30%
23-Apr-2024 09:00Clear Sky32°C7 mph, NE0%10000m1015hPa15%
23-Apr-2024 12:00Clear Sky36°C7 mph, E0%10000m1011hPa10%
23-Apr-2024 15:00Clear Sky35°C7 mph, E0%10000m1009hPa10%
23-Apr-2024 18:00Clear Sky24°C7 mph, SE0%10000m1012hPa19%
23-Apr-2024 21:00Clear Sky21°C7 mph, E0%10000m1014hPa24%
24-Apr-2024 00:00Clear Sky20°C4 mph, E0%10000m1014hPa27%